createdAt,value
2022-09-16T00:01:30.635Z,11.29
2022-09-16T00:03:58.831Z,11.19
2022-09-16T00:06:28.943Z,11.16
2022-09-16T00:09:00.977Z,11.18
2022-09-16T00:11:33.719Z,11.12
2022-09-16T00:14:02.347Z,11.16
2022-09-16T00:16:30.634Z,11.12
2022-09-16T00:19:00.839Z,11.06
2022-09-16T00:21:29.854Z,10.99
2022-09-16T00:23:58.379Z,11.04
2022-09-16T00:26:26.152Z,11.08
2022-09-16T00:28:53.826Z,11.22
2022-09-16T00:31:21.593Z,11.19
2022-09-16T00:33:49.383Z,11.21
2022-09-16T00:36:19.967Z,11.25
2022-09-16T00:38:52.866Z,11.30
2022-09-16T00:41:25.530Z,11.29
2022-09-16T00:44:01.298Z,11.29
2022-09-16T00:46:49.641Z,11.25
2022-09-16T00:49:31.105Z,11.24
2022-09-16T00:52:02.731Z,11.19
2022-09-16T00:54:32.052Z,11.14
2022-09-16T00:57:01.814Z,11.16
2022-09-16T00:59:36.534Z,11.02
2022-09-16T01:02:08.375Z,10.96
2022-09-16T01:04:48.259Z,10.91
2022-09-16T01:07:17.330Z,10.94
2022-09-16T01:09:45.098Z,10.89
2022-09-16T01:12:12.783Z,10.89
2022-09-16T01:14:56.698Z,10.86
2022-09-16T01:17:32.968Z,10.84
2022-09-16T01:20:54.572Z,10.86
2022-09-16T01:23:34.344Z,10.90
2022-09-16T01:26:20.401Z,10.92
2022-09-16T01:29:15.214Z,11.03
2022-09-16T01:31:53.066Z,11.14
2022-09-16T01:34:42.416Z,11.21
2022-09-16T01:37:25.149Z,11.24
2022-09-16T01:40:16.301Z,11.26
2022-09-16T01:42:58.035Z,11.36
2022-09-16T01:45:56.841Z,11.30
2022-09-16T01:48:28.263Z,11.23
2022-09-16T01:51:48.232Z,11.22
2022-09-16T01:54:26.335Z,11.19
2022-09-16T01:57:01.667Z,11.11
2022-09-16T01:59:42.448Z,11.09
2022-09-16T02:02:35.922Z,11.10
2022-09-16T02:05:09.223Z,11.03
2022-09-16T02:07:42.610Z,11.05
2022-09-16T02:10:23.173Z,11.13
2022-09-16T02:12:54.488Z,11.25
2022-09-16T02:15:26.515Z,11.40
2022-09-16T02:18:04.466Z,11.55
2022-09-16T02:20:36.962Z,11.63
2022-09-16T02:23:22.287Z,11.77
2022-09-16T02:25:52.809Z,11.89
2022-09-16T02:28:27.205Z,12.05
2022-09-16T02:31:00.096Z,12.15
2022-09-16T02:33:44.980Z,12.17
2022-09-16T02:36:17.642Z,12.16
2022-09-16T02:38:50.570Z,12.19
2022-09-16T02:41:18.557Z,12.30
2022-09-16T02:43:46.782Z,12.33
2022-09-16T02:46:26.228Z,12.32
2022-09-16T02:49:18.296Z,12.40
2022-09-16T02:52:10.635Z,12.41
2022-09-16T02:55:13.588Z,12.35
2022-09-16T02:57:41.792Z,12.26
2022-09-16T03:00:10.343Z,12.28
2022-09-16T03:02:38.159Z,12.37
2022-09-16T03:05:06.294Z,12.49
2022-09-16T03:07:34.651Z,12.43
2022-09-16T03:10:03.254Z,12.42
2022-09-16T03:12:49.720Z,12.44
2022-09-16T03:15:44.366Z,12.49
2022-09-16T03:18:35.240Z,12.47
2022-09-16T03:21:17.494Z,12.55
2022-09-16T03:23:57.415Z,12.63
2022-09-16T03:26:49.566Z,12.58
2022-09-16T03:29:18.078Z,12.55
2022-09-16T03:32:15.412Z,12.58
2022-09-16T03:34:49.829Z,12.58
2022-09-16T03:37:21.608Z,12.51
2022-09-16T03:39:55.658Z,12.52
2022-09-16T03:42:23.627Z,12.45
2022-09-16T03:44:51.287Z,12.38
2022-09-16T03:47:19.226Z,12.25
2022-09-16T03:49:46.958Z,12.14
2022-09-16T03:52:14.703Z,12.08
2022-09-16T03:54:42.377Z,12.01
2022-09-16T03:57:10.454Z,11.87
2022-09-16T03:59:38.076Z,11.75
2022-09-16T04:02:05.951Z,11.79
2022-09-16T04:04:34.034Z,11.79
2022-09-16T04:07:01.575Z,11.70
2022-09-16T04:09:29.184Z,11.63
2022-09-16T04:11:57.044Z,11.52
2022-09-16T04:14:24.718Z,11.59
2022-09-16T04:16:52.307Z,11.48
2022-09-16T04:19:20.190Z,11.43
2022-09-16T04:21:47.883Z,11.60
2022-09-16T04:24:15.417Z,11.51
2022-09-16T04:26:43.803Z,11.51
2022-09-16T04:29:11.737Z,11.50
2022-09-16T04:31:39.513Z,11.56
2022-09-16T04:34:07.396Z,11.60
2022-09-16T04:36:35.588Z,11.51
2022-09-16T04:39:03.651Z,11.68
2022-09-16T04:41:31.697Z,11.66
2022-09-16T04:44:00.450Z,11.72
2022-09-16T04:46:30.773Z,11.74
2022-09-16T04:49:00.081Z,11.69
2022-09-16T04:51:28.713Z,11.71
2022-09-16T04:53:57.509Z,11.80
2022-09-16T04:56:27.825Z,11.81
2022-09-16T04:58:59.565Z,11.79
2022-09-16T05:01:31.284Z,11.81
2022-09-16T05:04:01.780Z,11.96
2022-09-16T05:06:32.491Z,12.10
2022-09-16T05:09:01.105Z,12.17
2022-09-16T05:11:36.968Z,12.36
2022-09-16T05:14:08.709Z,12.48
2022-09-16T05:16:36.380Z,12.55
2022-09-16T05:19:04.974Z,12.65
2022-09-16T05:21:36.224Z,12.55
2022-09-16T05:24:08.577Z,12.54
2022-09-16T05:26:39.035Z,12.53
2022-09-16T05:29:14.451Z,12.69
2022-09-16T05:31:44.329Z,12.86
2022-09-16T05:34:28.509Z,12.91
2022-09-16T05:36:56.544Z,13.14
2022-09-16T05:39:25.481Z,13.22
2022-09-16T05:41:59.931Z,13.34
2022-09-16T05:44:29.274Z,13.30
2022-09-16T05:46:57.335Z,13.46
2022-09-16T05:49:25.722Z,13.59
2022-09-16T05:51:55.132Z,13.64
2022-09-16T05:54:25.080Z,13.68
2022-09-16T05:56:52.836Z,13.79
2022-09-16T05:59:22.607Z,13.82
2022-09-16T06:01:50.461Z,13.75
2022-09-16T06:04:18.223Z,13.90
2022-09-16T06:06:47.160Z,14.11
2022-09-16T06:09:21.061Z,14.27
2022-09-16T06:11:50.244Z,14.40
2022-09-16T06:14:19.509Z,14.34
2022-09-16T06:16:48.961Z,14.49
2022-09-16T06:19:18.653Z,14.32
2022-09-16T06:21:47.523Z,14.40
2022-09-16T06:24:17.110Z,14.31
2022-09-16T06:26:46.940Z,14.33
2022-09-16T06:29:16.708Z,14.47
2022-09-16T06:31:44.580Z,14.46
2022-09-16T06:34:18.673Z,14.86
2022-09-16T06:36:47.245Z,14.84
2022-09-16T06:39:17.117Z,15.05
2022-09-16T06:41:49.134Z,15.17
2022-09-16T06:44:17.081Z,15.25
2022-09-16T06:46:44.835Z,15.56
2022-09-16T06:49:13.114Z,15.57
2022-09-16T06:51:41.656Z,15.52
2022-09-16T06:54:10.931Z,15.61
2022-09-16T06:56:41.251Z,15.66
2022-09-16T06:59:10.405Z,15.77
2022-09-16T07:01:38.489Z,15.71
2022-09-16T07:04:11.053Z,15.78
2022-09-16T07:09:27.270Z,15.84
2022-09-16T07:11:55.371Z,15.84
2022-09-16T07:14:23.281Z,15.93
2022-09-16T07:16:51.241Z,15.91
2022-09-16T07:19:19.491Z,16.16
2022-09-16T07:21:47.228Z,16.37
2022-09-16T07:24:15.260Z,16.48
2022-09-16T07:26:44.227Z,16.13
2022-09-16T07:29:15.017Z,16.11
2022-09-16T07:31:43.134Z,16.51
2022-09-16T07:34:12.594Z,17.62
2022-09-16T07:36:41.838Z,17.84
2022-09-16T07:39:10.504Z,19.46
2022-09-16T07:41:41.249Z,20.27
2022-09-16T07:44:15.275Z,20.03
2022-09-16T07:46:43.746Z,21.93
2022-09-16T07:49:14.342Z,22.69
2022-09-16T07:51:42.571Z,23.71
2022-09-16T07:54:13.719Z,25.50
2022-09-16T07:56:42.954Z,26.87
2022-09-16T07:59:17.665Z,27.46
2022-09-16T08:01:47.866Z,28.01
2022-09-16T08:04:17.261Z,27.91
2022-09-16T08:06:45.176Z,27.35
2022-09-16T08:09:38.570Z,25.19
2022-09-16T08:12:03.567Z,23.88
2022-09-16T08:14:31.380Z,23.35
2022-09-16T08:16:59.061Z,22.06
2022-09-16T08:19:26.951Z,22.76
2022-09-16T08:21:54.586Z,22.30
2022-09-16T08:24:22.401Z,22.27
2022-09-16T08:26:50.298Z,24.58
2022-09-16T08:29:18.520Z,26.80
2022-09-16T08:31:46.470Z,28.51
2022-09-16T08:34:15.988Z,27.49
2022-09-16T08:36:44.038Z,26.35
2022-09-16T08:39:12.153Z,26.04
2022-09-16T08:42:30.415Z,26.51
2022-09-16T08:45:31.713Z,27.31
2022-09-16T08:48:34.877Z,27.82
2022-09-16T08:51:04.243Z,28.38
2022-09-16T08:53:38.445Z,27.74
2022-09-16T08:56:10.591Z,28.34
2022-09-16T08:58:48.787Z,27.29
2022-09-16T09:01:34.980Z,27.32
2022-09-16T09:04:03.976Z,27.56
2022-09-16T09:06:51.108Z,27.34
2022-09-16T09:09:37.322Z,26.67
2022-09-16T09:12:26.737Z,26.11
2022-09-16T09:15:16.892Z,24.53
2022-09-16T09:18:02.814Z,24.37
2022-09-16T09:21:05.958Z,25.85
2022-09-16T09:24:07.615Z,25.51
2022-09-16T09:27:12.248Z,24.32
2022-09-16T09:29:50.392Z,24.39
2022-09-16T09:32:49.388Z,24.17
2022-09-16T09:35:25.016Z,23.34
2022-09-16T09:38:14.892Z,23.90
2022-09-16T09:40:56.750Z,22.66
2022-09-16T09:43:34.227Z,21.86
2022-09-16T09:46:13.425Z,21.45
2022-09-16T09:48:48.151Z,20.94
2022-09-16T09:51:38.034Z,20.80
2022-09-16T09:54:29.755Z,20.86
2022-09-16T09:57:03.669Z,20.41
2022-09-16T09:59:42.738Z,19.99
2022-09-16T10:02:22.658Z,20.05
2022-09-16T10:04:51.062Z,20.80
2022-09-16T10:07:23.465Z,20.45
2022-09-16T10:10:01.488Z,20.46
2022-09-16T10:12:32.102Z,20.46
2022-09-16T10:15:00.505Z,19.86
2022-09-16T10:17:37.350Z,20.02
2022-09-16T10:20:23.916Z,20.20
2022-09-16T10:23:07.048Z,20.57
2022-09-16T10:25:35.535Z,20.88
2022-09-16T10:28:06.324Z,21.07
2022-09-16T10:30:54.362Z,20.62
2022-09-16T10:33:30.502Z,20.00
2022-09-16T10:36:02.537Z,19.52
2022-09-16T10:38:47.138Z,19.03
2022-09-16T10:41:24.024Z,18.83
2022-09-16T10:44:02.476Z,19.16
2022-09-16T10:46:31.217Z,19.41
2022-09-16T10:49:10.810Z,19.48
2022-09-16T10:51:38.694Z,19.83
2022-09-16T10:54:07.132Z,20.08
2022-09-16T10:56:48.140Z,20.67
2022-09-16T10:59:16.361Z,21.01
2022-09-16T11:02:29.074Z,20.95
2022-09-16T11:05:21.629Z,20.67
2022-09-16T11:08:00.569Z,20.50
2022-09-16T11:10:42.455Z,20.03
2022-09-16T11:13:25.201Z,19.49
2022-09-16T11:16:23.853Z,19.67
2022-09-16T11:19:26.345Z,19.69
2022-09-16T11:22:21.306Z,19.71
2022-09-16T11:24:49.300Z,19.76
2022-09-16T11:27:31.090Z,19.47
2022-09-16T11:30:15.037Z,19.04
2022-09-16T11:33:04.676Z,19.06
2022-09-16T11:36:29.263Z,19.48
2022-09-16T11:39:17.112Z,19.77
2022-09-16T11:42:00.084Z,19.68
2022-09-16T11:44:52.723Z,19.36
2022-09-16T11:47:40.829Z,19.64
2022-09-16T11:50:46.216Z,19.52
2022-09-16T11:53:29.429Z,19.68
2022-09-16T11:56:26.195Z,19.74
2022-09-16T11:58:58.033Z,19.73
2022-09-16T12:01:50.211Z,19.52
2022-09-16T12:04:33.699Z,19.42
2022-09-16T12:07:25.819Z,19.43
2022-09-16T12:10:05.699Z,19.02
2022-09-16T12:12:38.904Z,18.67
2022-09-16T12:15:21.354Z,18.55
2022-09-16T12:18:08.513Z,18.35
2022-09-16T12:20:41.800Z,18.36
2022-09-16T12:23:22.498Z,18.23
2022-09-16T12:25:59.392Z,18.08
2022-09-16T12:28:33.828Z,17.91
2022-09-16T12:31:23.066Z,17.84
2022-09-16T12:34:03.790Z,17.82
2022-09-16T12:36:35.772Z,17.89
2022-09-16T12:39:03.948Z,17.78
2022-09-16T12:42:09.986Z,17.47
2022-09-16T12:45:08.072Z,17.42
2022-09-16T12:48:05.587Z,17.37
2022-09-16T12:51:01.732Z,17.40
2022-09-16T12:53:54.507Z,17.58
2022-09-16T12:56:59.817Z,17.94
2022-09-16T12:59:27.455Z,18.25
2022-09-16T13:02:04.650Z,18.57
2022-09-16T13:04:38.893Z,18.70
2022-09-16T13:07:07.629Z,18.74
2022-09-16T13:09:40.795Z,18.35
2022-09-16T13:12:44.831Z,18.12
2022-09-16T13:15:29.391Z,18.35
2022-09-16T13:18:09.043Z,18.35
2022-09-16T13:20:47.869Z,18.40
2022-09-16T13:23:32.962Z,18.44
2022-09-16T13:26:09.542Z,18.54
2022-09-16T13:28:40.780Z,18.51
2022-09-16T13:31:11.301Z,18.67
2022-09-16T13:33:44.024Z,18.76
2022-09-16T13:36:18.564Z,18.83
2022-09-16T13:38:59.232Z,18.84
2022-09-16T13:41:35.016Z,18.52
2022-09-16T13:44:23.733Z,18.20
2022-09-16T13:46:51.435Z,17.93
2022-09-16T13:49:21.615Z,17.83
2022-09-16T13:51:50.946Z,17.68
2022-09-16T13:54:22.738Z,17.44
2022-09-16T13:57:12.521Z,17.34
2022-09-16T14:03:02.925Z,17.70
2022-09-16T14:05:51.967Z,17.55
2022-09-16T14:08:44.010Z,17.41
2022-09-16T14:11:24.006Z,17.41
2022-09-16T14:14:05.127Z,17.61
2022-09-16T14:16:35.406Z,17.59
2022-09-16T14:19:16.789Z,17.71
2022-09-16T14:21:44.523Z,17.52
2022-09-16T14:24:20.365Z,17.55
2022-09-16T14:26:52.832Z,17.59
2022-09-16T14:29:21.864Z,17.76
2022-09-16T14:31:52.675Z,17.93
2022-09-16T14:34:29.905Z,17.92
2022-09-16T14:36:58.113Z,17.96
2022-09-16T14:39:28.200Z,18.09
2022-09-16T14:41:59.230Z,18.08
2022-09-16T14:44:32.018Z,17.90
2022-09-16T14:47:08.859Z,17.85
2022-09-16T14:49:41.779Z,17.89
2022-09-16T14:52:23.134Z,17.93
2022-09-16T14:54:51.958Z,17.87
2022-09-16T14:57:25.116Z,17.81
2022-09-16T14:59:58.762Z,17.71
2022-09-16T15:02:56.037Z,17.62
2022-09-16T15:05:39.787Z,17.54
2022-09-16T15:08:17.004Z,17.46
2022-09-16T15:10:56.059Z,17.44
2022-09-16T15:13:44.624Z,17.46
2022-09-16T15:16:22.732Z,17.25
2022-09-16T15:18:54.611Z,17.04
2022-09-16T15:21:29.940Z,16.88
2022-09-16T15:24:01.111Z,16.87
2022-09-16T15:26:42.180Z,16.70
2022-09-16T15:29:19.299Z,16.58
2022-09-16T15:31:50.352Z,16.41
2022-09-16T15:34:20.940Z,16.25
2022-09-16T15:36:52.032Z,16.25
2022-09-16T15:39:36.059Z,16.39
2022-09-16T15:42:20.470Z,16.38
2022-09-16T15:44:57.864Z,16.42
2022-09-16T15:47:36.058Z,16.63
2022-09-16T15:50:18.025Z,16.64
2022-09-16T15:52:55.762Z,16.77
2022-09-16T15:55:53.146Z,16.78
2022-09-16T15:58:24.340Z,16.71
2022-09-16T16:00:57.793Z,16.50
2022-09-16T16:03:26.831Z,16.28
2022-09-16T16:05:55.231Z,16.12
2022-09-16T16:08:48.274Z,16.08
2022-09-16T16:11:19.218Z,16.02
2022-09-16T16:13:47.490Z,15.86
2022-09-16T16:16:16.707Z,15.88
2022-09-16T16:18:46.318Z,15.74
2022-09-16T16:21:17.542Z,15.52
2022-09-16T16:23:45.513Z,15.55
2022-09-16T16:26:13.378Z,15.42
2022-09-16T16:28:41.057Z,15.26
2022-09-16T16:31:17.801Z,15.15
2022-09-16T16:33:47.545Z,14.97
2022-09-16T16:36:18.378Z,15.00
2022-09-16T16:38:46.371Z,14.81
2022-09-16T16:41:20.902Z,14.64
2022-09-16T16:43:49.851Z,14.64
2022-09-16T16:46:19.350Z,14.49
2022-09-16T16:48:47.493Z,14.40
2022-09-16T16:51:15.450Z,14.23
2022-09-16T16:53:47.196Z,14.13
2022-09-16T16:56:15.734Z,14.06
2022-09-16T16:58:43.714Z,13.89
2022-09-16T17:01:16.782Z,13.76
2022-09-16T17:03:46.290Z,13.64
2022-09-16T17:06:14.516Z,13.55
2022-09-16T17:08:42.358Z,13.42
2022-09-16T17:11:11.011Z,13.42
2022-09-16T17:13:45.328Z,13.39
2022-09-16T17:16:15.335Z,13.29
2022-09-16T17:18:43.723Z,13.33
2022-09-16T17:21:14.454Z,13.27
2022-09-16T17:23:42.531Z,13.17
2022-09-16T17:26:11.289Z,13.21
2022-09-16T17:28:40.946Z,13.07
2022-09-16T17:31:27.778Z,12.89
2022-09-16T17:34:07.207Z,12.76
2022-09-16T17:36:37.435Z,12.83
2022-09-16T17:39:11.529Z,12.73
2022-09-16T17:41:39.226Z,12.69
2022-09-16T17:44:08.125Z,12.72
2022-09-16T17:46:35.950Z,12.69
2022-09-16T17:49:07.680Z,12.58
2022-09-16T17:51:35.976Z,12.52
2022-09-16T17:54:04.027Z,12.49
2022-09-16T17:56:31.599Z,12.50
2022-09-16T17:59:00.279Z,12.47
2022-09-16T18:01:28.259Z,12.46
2022-09-16T18:03:56.621Z,12.44
2022-09-16T18:06:35.504Z,12.41
2022-09-16T18:09:07.175Z,12.37
2022-09-16T18:11:36.209Z,12.43
2022-09-16T18:14:06.044Z,12.35
2022-09-16T18:16:33.909Z,12.24
2022-09-16T18:19:02.737Z,12.35
2022-09-16T18:21:32.492Z,12.30
2022-09-16T18:24:02.901Z,12.30
2022-09-16T18:26:32.122Z,12.20
2022-09-16T18:29:11.371Z,12.18
2022-09-16T18:31:43.808Z,12.17
2022-09-16T18:34:12.844Z,12.13
2022-09-16T18:36:41.851Z,12.16
2022-09-16T18:39:17.213Z,12.18
2022-09-16T18:41:46.794Z,12.11
2022-09-16T18:44:19.986Z,12.09
2022-09-16T18:46:48.228Z,12.04
2022-09-16T18:49:17.510Z,11.88
2022-09-16T18:51:51.319Z,11.88
2022-09-16T18:54:29.113Z,11.93
2022-09-16T18:57:01.887Z,11.92
2022-09-16T18:59:32.024Z,11.89
2022-09-16T19:02:03.391Z,11.79
2022-09-16T19:04:38.043Z,11.78
2022-09-16T19:07:08.663Z,11.71
2022-09-16T19:09:39.680Z,11.72
2022-09-16T19:12:10.925Z,11.58
2022-09-16T19:14:40.123Z,11.54
2022-09-16T19:17:08.365Z,11.53
2022-09-16T19:19:36.180Z,11.57
2022-09-16T19:22:05.856Z,11.54
2022-09-16T19:24:35.104Z,11.46
2022-09-16T19:27:02.931Z,11.54
2022-09-16T19:29:32.593Z,11.37
2022-09-16T19:32:00.580Z,11.30
2022-09-16T19:34:28.461Z,11.33
2022-09-16T19:36:56.861Z,11.20
2022-09-16T19:39:26.922Z,11.10
2022-09-16T19:41:54.659Z,10.95
2022-09-16T19:44:22.499Z,10.90
2022-09-16T19:46:50.734Z,10.91
2022-09-16T19:49:21.052Z,10.89
2022-09-16T19:51:50.173Z,10.73
2022-09-16T19:54:18.343Z,10.72
2022-09-16T19:56:50.613Z,10.79
2022-09-16T19:59:19.672Z,10.64
2022-09-16T20:01:48.112Z,10.73
2022-09-16T20:04:19.786Z,10.72
2022-09-16T20:06:48.229Z,10.60
2022-09-16T20:09:16.943Z,10.62
2022-09-16T20:11:46.572Z,10.47
2022-09-16T20:14:21.511Z,10.32
2022-09-16T20:16:50.933Z,10.27
2022-09-16T20:19:20.852Z,10.24
2022-09-16T20:21:48.915Z,10.19
2022-09-16T20:24:19.368Z,10.08
2022-09-16T20:26:50.618Z,10.08
2022-09-16T20:29:19.831Z,10.06
2022-09-16T20:31:50.115Z,10.08
2022-09-16T20:34:18.182Z,9.96
2022-09-16T20:36:46.325Z,9.95
2022-09-16T20:39:15.261Z,9.85
2022-09-16T20:41:45.742Z,9.83
2022-09-16T20:44:15.776Z,9.79
2022-09-16T20:46:44.020Z,9.83
2022-09-16T20:49:15.920Z,9.79
2022-09-16T20:51:44.396Z,9.73
2022-09-16T20:54:14.312Z,9.71
2022-09-16T20:56:44.555Z,9.63
2022-09-16T20:59:14.374Z,9.58
2022-09-16T21:01:42.871Z,9.54
2022-09-16T21:04:15.983Z,9.59
2022-09-16T21:06:45.497Z,9.55
2022-09-16T21:09:16.253Z,9.59
2022-09-16T21:11:44.897Z,9.57
2022-09-16T21:14:16.245Z,9.48
2022-09-16T21:16:46.917Z,9.43
2022-09-16T21:19:16.664Z,9.34
2022-09-16T21:21:47.797Z,9.37
2022-09-16T21:24:16.845Z,9.36
2022-09-16T21:26:45.411Z,9.35
2022-09-16T21:29:15.574Z,9.28
2022-09-16T21:31:44.052Z,9.50
2022-09-16T21:34:21.036Z,9.45
2022-09-16T21:36:50.349Z,9.40
2022-09-16T21:39:20.466Z,9.52
2022-09-16T21:41:48.914Z,9.52
2022-09-16T21:44:17.823Z,9.52
2022-09-16T21:46:46.693Z,9.56
2022-09-16T21:49:25.512Z,9.47
2022-09-16T21:51:58.021Z,9.46
2022-09-16T21:54:26.708Z,9.44
2022-09-16T21:56:54.824Z,9.50
2022-09-16T21:59:23.629Z,9.41
2022-09-16T22:01:52.537Z,9.42
2022-09-16T22:04:23.200Z,9.52
2022-09-16T22:06:54.744Z,9.38
2022-09-16T22:09:23.502Z,9.24
2022-09-16T22:11:52.073Z,9.20
2022-09-16T22:14:19.761Z,9.21
2022-09-16T22:16:48.050Z,9.22
2022-09-16T22:19:19.211Z,9.24
2022-09-16T22:21:49.840Z,9.19
2022-09-16T22:24:20.476Z,9.16
2022-09-16T22:26:50.700Z,9.25
2022-09-16T22:29:18.833Z,9.25
2022-09-16T22:31:47.108Z,9.21
2022-09-16T22:34:15.063Z,9.16
2022-09-16T22:36:42.855Z,9.19
2022-09-16T22:39:19.533Z,9.11
2022-09-16T22:41:47.738Z,9.00
2022-09-16T22:44:15.788Z,9.02
2022-09-16T22:46:46.317Z,8.95
2022-09-16T22:49:15.281Z,9.04
2022-09-16T22:51:43.304Z,9.06
2022-09-16T22:54:13.171Z,8.92
2022-09-16T22:56:41.653Z,8.83
2022-09-16T22:59:20.608Z,8.83
2022-09-16T23:01:49.186Z,8.76
2022-09-16T23:04:18.580Z,8.74
2022-09-16T23:06:47.300Z,8.77
2022-09-16T23:09:15.358Z,8.80
2022-09-16T23:11:43.228Z,8.76
2022-09-16T23:14:15.675Z,8.72
2022-09-16T23:16:43.460Z,8.72
2022-09-16T23:19:12.107Z,8.67
2022-09-16T23:21:40.893Z,8.66
2022-09-16T23:24:13.359Z,8.58
2022-09-16T23:26:41.484Z,8.57
2022-09-16T23:29:11.945Z,8.51
2022-09-16T23:31:43.186Z,8.42
2022-09-16T23:34:21.694Z,8.36
2022-09-16T23:36:50.499Z,8.39
2022-09-16T23:39:19.418Z,8.40
2022-09-16T23:41:49.438Z,8.44
2022-09-16T23:44:17.575Z,8.44
2022-09-16T23:46:45.732Z,8.36
2022-09-16T23:49:13.702Z,8.38
2022-09-16T23:51:41.216Z,8.36
2022-09-16T23:54:09.025Z,8.29
2022-09-16T23:56:36.963Z,8.38
2022-09-16T23:59:04.851Z,8.28
